weather.gov     
National Weather Service

Terminal Aerodrome Forecast
NWS Homepage
This page is being discontinued on March 12, 2014.
The same data is available at this site. Please update your bookmarks.
Thank you, and we apologize for the inconvenience.
Please send an email to SR-SRH.Webmaster@noaa.gov with any concerns.


Current Version
Previous Version:    01  02  03  04  05  06  07  08  09  10  11  12  13  14  15  16  17  18  19  20  21  22  23  24  25  26  27  28  29  30  
   31  32  33  
[Printable]
171
FTUS45 KGJT 230533
TAFMTJ
TAF
KMTJ 230533Z 2306/2406 18008KT P6SM VCSH BKN100 WS020/22030KT
      TEMPO 2306/2307 23022G32KT P6SM FEW060 BKN100
     FM230700 25012G22KT P6SM VCSH SCT070 BKN100
     FM231400 30010KT P6SM SCT070 BKN200
     FM231700 30013G25KT P6SM SCT070 BKN100
     FM240200 14005KT P6SM SCT100=




171
FTUS45 KGJT 230533
TAFMTJ
TAF
KMTJ 230533Z 2306/2406 18008KT P6SM VCSH BKN100 WS020/22030KT
      TEMPO 2306/2307 23022G32KT P6SM FEW060 BKN100
     FM230700 25012G22KT P6SM VCSH SCT070 BKN100
     FM231400 30010KT P6SM SCT070 BKN200
     FM231700 30013G25KT P6SM SCT070 BKN100
     FM240200 14005KT P6SM SCT100=


U.S. Dept. of Commerce
NOAA National Weather Service
1325 East West Highway
Silver Spring, MD 20910
E-mail: w-nws.webmaster@noaa.gov
Page last modified: May 16, 2007
NATIONAL WEATHER SERVICE: for Safety, for Work, for Fun - FOR LIFE